sensor_id;sensor_type;location;lat;lon;timestamp;temperature;humidity
19192;DHT22;9728;48.194;16.346;2022-10-31T00:03:36;19.70;58.30
19192;DHT22;9728;48.194;16.346;2022-10-31T00:08:39;19.70;58.30
19192;DHT22;9728;48.194;16.346;2022-10-31T00:13:44;19.60;58.20
19192;DHT22;9728;48.194;16.346;2022-10-31T00:18:48;19.70;58.30
19192;DHT22;9728;48.194;16.346;2022-10-31T00:23:52;19.70;58.30
19192;DHT22;9728;48.194;16.346;2022-10-31T00:28:58;19.70;58.20
19192;DHT22;9728;48.194;16.346;2022-10-31T00:34:01;19.70;58.20
19192;DHT22;9728;48.194;16.346;2022-10-31T00:39:05;19.60;58.10
19192;DHT22;9728;48.194;16.346;2022-10-31T00:44:10;19.60;58.10
19192;DHT22;9728;48.194;16.346;2022-10-31T00:49:13;19.60;58.20
19192;DHT22;9728;48.194;16.346;2022-10-31T00:54:17;19.60;58.10
19192;DHT22;9728;48.194;16.346;2022-10-31T00:59:22;19.60;58.10
19192;DHT22;9728;48.194;16.346;2022-10-31T01:04:25;19.60;58.20
19192;DHT22;9728;48.194;16.346;2022-10-31T01:09:30;19.60;58.20
19192;DHT22;9728;48.194;16.346;2022-10-31T01:14:35;19.60;58.20
19192;DHT22;9728;48.194;16.346;2022-10-31T01:19:38;19.60;58.20
19192;DHT22;9728;48.194;16.346;2022-10-31T01:24:42;19.60;58.10
19192;DHT22;9728;48.194;16.346;2022-10-31T01:29:47;19.50;58.20
19192;DHT22;9728;48.194;16.346;2022-10-31T01:34:50;19.60;58.30
19192;DHT22;9728;48.194;16.346;2022-10-31T01:39:53;19.60;58.20
19192;DHT22;9728;48.194;16.346;2022-10-31T01:45:00;19.50;58.20
19192;DHT22;9728;48.194;16.346;2022-10-31T01:50:09;19.60;58.40
19192;DHT22;9728;48.194;16.346;2022-10-31T01:55:18;19.50;58.30
19192;DHT22;9728;48.194;16.346;2022-10-31T02:00:30;19.50;58.30
19192;DHT22;9728;48.194;16.346;2022-10-31T02:05:33;19.50;58.20
19192;DHT22;9728;48.194;16.346;2022-10-31T02:10:38;19.50;58.20
19192;DHT22;9728;48.194;16.346;2022-10-31T02:15:45;19.50;58.10
19192;DHT22;9728;48.194;16.346;2022-10-31T02:21:05;19.50;58.20
19192;DHT22;9728;48.194;16.346;2022-10-31T02:26:36;19.50;58.20
19192;DHT22;9728;48.194;16.346;2022-10-31T02:31:51;19.50;58.20
19192;DHT22;9728;48.194;16.346;2022-10-31T02:37:03;19.50;58.20
19192;DHT22;9728;48.194;16.346;2022-10-31T02:42:16;19.50;58.30
19192;DHT22;9728;48.194;16.346;2022-10-31T02:47:25;19.50;58.30
19192;DHT22;9728;48.194;16.346;2022-10-31T02:52:31;19.50;58.30
19192;DHT22;9728;48.194;16.346;2022-10-31T02:57:39;19.50;58.20
19192;DHT22;9728;48.194;16.346;2022-10-31T03:03:02;19.50;58.30
19192;DHT22;9728;48.194;16.346;2022-10-31T03:08:14;19.50;58.30
19192;DHT22;9728;48.194;16.346;2022-10-31T03:13:27;19.50;58.20
19192;DHT22;9728;48.194;16.346;2022-10-31T03:18:40;19.50;58.20
19192;DHT22;9728;48.194;16.346;2022-10-31T03:23:45;19.50;58.20
19192;DHT22;9728;48.194;16.346;2022-10-31T03:28:56;19.50;58.10
19192;DHT22;9728;48.194;16.346;2022-10-31T03:34:02;19.50;58.10
19192;DHT22;9728;48.194;16.346;2022-10-31T03:39:10;19.50;58.20
19192;DHT22;9728;48.194;16.346;2022-10-31T03:44:17;19.50;58.20
19192;DHT22;9728;48.194;16.346;2022-10-31T03:49:32;19.50;58.20
19192;DHT22;9728;48.194;16.346;2022-10-31T03:54:41;19.50;58.10
19192;DHT22;9728;48.194;16.346;2022-10-31T03:59:50;19.50;58.20
19192;DHT22;9728;48.194;16.346;2022-10-31T04:04:56;19.40;58.10
19192;DHT22;9728;48.194;16.346;2022-10-31T04:10:03;19.40;58.10
19192;DHT22;9728;48.194;16.346;2022-10-31T04:15:10;19.40;58.00
19192;DHT22;9728;48.194;16.346;2022-10-31T04:20:17;19.40;57.90
19192;DHT22;9728;48.194;16.346;2022-10-31T04:25:22;19.40;57.90
19192;DHT22;9728;48.194;16.346;2022-10-31T04:30:28;19.40;57.90
19192;DHT22;9728;48.194;16.346;2022-10-31T04:35:32;19.40;57.90
19192;DHT22;9728;48.194;16.346;2022-10-31T04:40:36;19.40;57.90
19192;DHT22;9728;48.194;16.346;2022-10-31T04:45:58;19.40;57.90
19192;DHT22;9728;48.194;16.346;2022-10-31T04:51:04;19.40;57.80
19192;DHT22;9728;48.194;16.346;2022-10-31T04:56:07;19.40;57.80
19192;DHT22;9728;48.194;16.346;2022-10-31T05:01:16;19.30;57.70
19192;DHT22;9728;48.194;16.346;2022-10-31T05:06:21;19.30;57.70
19192;DHT22;9728;48.194;16.346;2022-10-31T05:11:25;19.30;57.80
19192;DHT22;9728;48.194;16.346;2022-10-31T05:16:35;19.30;57.80
19192;DHT22;9728;48.194;16.346;2022-10-31T05:21:57;19.30;57.80
19192;DHT22;9728;48.194;16.346;2022-10-31T05:27:01;19.30;57.90
19192;DHT22;9728;48.194;16.346;2022-10-31T05:32:04;19.30;57.80
19192;DHT22;9728;48.194;16.346;2022-10-31T05:37:38;19.30;57.90
19192;DHT22;9728;48.194;16.346;2022-10-31T05:42:43;19.30;57.90
19192;DHT22;9728;48.194;16.346;2022-10-31T05:47:51;19.20;57.80
19192;DHT22;9728;48.194;16.346;2022-10-31T05:53:15;19.20;57.80
19192;DHT22;9728;48.194;16.346;2022-10-31T05:58:19;19.20;57.80
19192;DHT22;9728;48.194;16.346;2022-10-31T06:03:35;19.20;57.80
19192;DHT22;9728;48.194;16.346;2022-10-31T06:08:42;19.20;57.80
19192;DHT22;9728;48.194;16.346;2022-10-31T06:13:49;19.20;57.80
19192;DHT22;9728;48.194;16.346;2022-10-31T06:19:00;19.20;57.80
19192;DHT22;9728;48.194;16.346;2022-10-31T06:24:05;19.20;57.80
19192;DHT22;9728;48.194;16.346;2022-10-31T06:29:43;19.20;57.90
19192;DHT22;9728;48.194;16.346;2022-10-31T06:34:56;19.20;57.80
19192;DHT22;9728;48.194;16.346;2022-10-31T06:40:01;19.20;57.80
19192;DHT22;9728;48.194;16.346;2022-10-31T06:45:12;19.10;57.80
19192;DHT22;9728;48.194;16.346;2022-10-31T06:50:44;19.10;57.80
19192;DHT22;9728;48.194;16.346;2022-10-31T06:55:50;19.20;57.90
19192;DHT22;9728;48.194;16.346;2022-10-31T07:00:53;19.20;57.90
19192;DHT22;9728;48.194;16.346;2022-10-31T07:05:57;19.20;57.90
19192;DHT22;9728;48.194;16.346;2022-10-31T07:11:03;19.20;57.90
19192;DHT22;9728;48.194;16.346;2022-10-31T07:16:06;19.20;58.00
19192;DHT22;9728;48.194;16.346;2022-10-31T07:21:10;19.20;58.00
19192;DHT22;9728;48.194;16.346;2022-10-31T07:26:16;19.20;58.00
19192;DHT22;9728;48.194;16.346;2022-10-31T07:31:21;19.20;58.10
19192;DHT22;9728;48.194;16.346;2022-10-31T07:36:29;19.20;58.00
19192;DHT22;9728;48.194;16.346;2022-10-31T07:41:38;19.30;58.10
19192;DHT22;9728;48.194;16.346;2022-10-31T07:46:43;19.30;58.00
19192;DHT22;9728;48.194;16.346;2022-10-31T07:52:09;19.30;58.00
19192;DHT22;9728;48.194;16.346;2022-10-31T07:57:29;19.30;58.10
19192;DHT22;9728;48.194;16.346;2022-10-31T08:02:35;19.30;58.20
19192;DHT22;9728;48.194;16.346;2022-10-31T08:08:08;19.40;58.30
19192;DHT22;9728;48.194;16.346;2022-10-31T08:13:14;19.40;58.30
19192;DHT22;9728;48.194;16.346;2022-10-31T08:18:21;19.50;58.30
19192;DHT22;9728;48.194;16.346;2022-10-31T08:23:26;19.50;58.40
19192;DHT22;9728;48.194;16.346;2022-10-31T08:28:33;19.60;60.80
19192;DHT22;9728;48.194;16.346;2022-10-31T08:33:37;19.90;62.30
19192;DHT22;9728;48.194;16.346;2022-10-31T08:38:58;20.20;61.00
19192;DHT22;9728;48.194;16.346;2022-10-31T08:44:05;20.50;59.40
19192;DHT22;9728;48.194;16.346;2022-10-31T08:49:09;20.70;58.90
19192;DHT22;9728;48.194;16.346;2022-10-31T08:54:14;20.70;58.40
19192;DHT22;9728;48.194;16.346;2022-10-31T08:59:32;20.80;58.00
19192;DHT22;9728;48.194;16.346;2022-10-31T09:04:55;20.90;57.60
19192;DHT22;9728;48.194;16.346;2022-10-31T09:09:59;20.80;57.30
19192;DHT22;9728;48.194;16.346;2022-10-31T09:15:09;20.80;57.20
19192;DHT22;9728;48.194;16.346;2022-10-31T09:20:20;20.80;57.20
19192;DHT22;9728;48.194;16.346;2022-10-31T09:25:25;20.80;57.10
19192;DHT22;9728;48.194;16.346;2022-10-31T09:30:52;20.70;57.00
19192;DHT22;9728;48.194;16.346;2022-10-31T09:36:15;20.70;56.90
19192;DHT22;9728;48.194;16.346;2022-10-31T09:41:24;20.70;57.00
19192;DHT22;9728;48.194;16.346;2022-10-31T09:46:41;20.60;56.90
19192;DHT22;9728;48.194;16.346;2022-10-31T09:51:53;20.60;57.00
19192;DHT22;9728;48.194;16.346;2022-10-31T09:57:05;20.50;57.00
19192;DHT22;9728;48.194;16.346;2022-10-31T10:02:16;20.50;57.10
19192;DHT22;9728;48.194;16.346;2022-10-31T10:07:40;20.50;57.10
19192;DHT22;9728;48.194;16.346;2022-10-31T10:13:16;20.50;57.10
19192;DHT22;9728;48.194;16.346;2022-10-31T10:18:32;20.40;57.10
19192;DHT22;9728;48.194;16.346;2022-10-31T10:23:49;20.40;57.40
19192;DHT22;9728;48.194;16.346;2022-10-31T10:28:58;20.40;57.30
19192;DHT22;9728;48.194;16.346;2022-10-31T10:34:13;20.40;57.30
19192;DHT22;9728;48.194;16.346;2022-10-31T10:39:22;20.40;57.40
19192;DHT22;9728;48.194;16.346;2022-10-31T10:44:26;20.40;57.40
19192;DHT22;9728;48.194;16.346;2022-10-31T10:49:50;20.40;57.40
19192;DHT22;9728;48.194;16.346;2022-10-31T10:55:01;20.40;57.40
19192;DHT22;9728;48.194;16.346;2022-10-31T11:00:17;20.40;57.40
19192;DHT22;9728;48.194;16.346;2022-10-31T11:05:30;20.40;57.40
19192;DHT22;9728;48.194;16.346;2022-10-31T11:10:36;20.40;57.40
19192;DHT22;9728;48.194;16.346;2022-10-31T11:15:51;20.40;57.60
19192;DHT22;9728;48.194;16.346;2022-10-31T11:20:58;20.40;57.70
19192;DHT22;9728;48.194;16.346;2022-10-31T11:26:05;20.40;57.70
19192;DHT22;9728;48.194;16.346;2022-10-31T11:31:12;20.50;58.00
19192;DHT22;9728;48.194;16.346;2022-10-31T11:36:22;20.50;57.80
19192;DHT22;9728;48.194;16.346;2022-10-31T11:41:28;20.50;57.60
19192;DHT22;9728;48.194;16.346;2022-10-31T11:46:35;20.50;57.50
19192;DHT22;9728;48.194;16.346;2022-10-31T11:51:41;20.60;57.50
19192;DHT22;9728;48.194;16.346;2022-10-31T11:56:45;20.60;57.40
19192;DHT22;9728;48.194;16.346;2022-10-31T12:01:49;20.60;57.40
19192;DHT22;9728;48.194;16.346;2022-10-31T12:06:55;20.50;57.30
19192;DHT22;9728;48.194;16.346;2022-10-31T12:12:21;20.50;57.30
19192;DHT22;9728;48.194;16.346;2022-10-31T12:17:32;20.50;57.40
19192;DHT22;9728;48.194;16.346;2022-10-31T12:22:45;20.50;57.30
19192;DHT22;9728;48.194;16.346;2022-10-31T12:28:12;20.50;57.60
19192;DHT22;9728;48.194;16.346;2022-10-31T12:33:29;20.50;57.50
19192;DHT22;9728;48.194;16.346;2022-10-31T12:38:58;20.50;57.30
19192;DHT22;9728;48.194;16.346;2022-10-31T12:44:06;20.50;57.30
19192;DHT22;9728;48.194;16.346;2022-10-31T12:49:25;20.50;57.30
19192;DHT22;9728;48.194;16.346;2022-10-31T12:54:44;20.50;57.30
19192;DHT22;9728;48.194;16.346;2022-10-31T12:59:51;20.50;57.90
19192;DHT22;9728;48.194;16.346;2022-10-31T13:04:57;20.50;59.40
19192;DHT22;9728;48.194;16.346;2022-10-31T13:10:07;20.60;60.30
19192;DHT22;9728;48.194;16.346;2022-10-31T13:15:18;20.90;59.30
19192;DHT22;9728;48.194;16.346;2022-10-31T13:20:27;21.10;59.30
19192;DHT22;9728;48.194;16.346;2022-10-31T13:25:38;21.30;58.40
19192;DHT22;9728;48.194;16.346;2022-10-31T13:30:42;21.40;57.80
19192;DHT22;9728;48.194;16.346;2022-10-31T13:35:51;21.50;57.50
19192;DHT22;9728;48.194;16.346;2022-10-31T13:41:00;21.50;56.90
19192;DHT22;9728;48.194;16.346;2022-10-31T13:46:21;21.50;56.70
19192;DHT22;9728;48.194;16.346;2022-10-31T13:51:26;21.40;56.40
19192;DHT22;9728;48.194;16.346;2022-10-31T13:56:33;21.30;56.50
19192;DHT22;9728;48.194;16.346;2022-10-31T14:01:37;21.30;56.70
19192;DHT22;9728;48.194;16.346;2022-10-31T14:06:54;21.20;56.60
19192;DHT22;9728;48.194;16.346;2022-10-31T14:12:04;21.10;57.10
19192;DHT22;9728;48.194;16.346;2022-10-31T14:17:18;21.10;57.00
19192;DHT22;9728;48.194;16.346;2022-10-31T14:22:23;21.10;56.90
19192;DHT22;9728;48.194;16.346;2022-10-31T14:27:44;21.00;56.80
19192;DHT22;9728;48.194;16.346;2022-10-31T14:32:52;21.00;56.70
19192;DHT22;9728;48.194;16.346;2022-10-31T14:44:03;20.90;56.80
19192;DHT22;9728;48.194;16.346;2022-10-31T14:49:23;20.90;56.80
19192;DHT22;9728;48.194;16.346;2022-10-31T14:54:32;20.80;56.70
19192;DHT22;9728;48.194;16.346;2022-10-31T14:59:45;20.80;57.00
19192;DHT22;9728;48.194;16.346;2022-10-31T15:04:52;20.70;57.00
19192;DHT22;9728;48.194;16.346;2022-10-31T15:09:58;20.70;57.00
19192;DHT22;9728;48.194;16.346;2022-10-31T15:15:13;20.70;57.00
19192;DHT22;9728;48.194;16.346;2022-10-31T15:20:19;20.60;59.50
19192;DHT22;9728;48.194;16.346;2022-10-31T15:25:24;20.60;58.20
19192;DHT22;9728;48.194;16.346;2022-10-31T15:30:30;20.70;57.80
19192;DHT22;9728;48.194;16.346;2022-10-31T15:35:33;20.70;57.40
19192;DHT22;9728;48.194;16.346;2022-10-31T15:40:36;20.70;57.30
19192;DHT22;9728;48.194;16.346;2022-10-31T15:45:42;20.70;57.10
19192;DHT22;9728;48.194;16.346;2022-10-31T15:50:48;20.60;56.90
19192;DHT22;9728;48.194;16.346;2022-10-31T15:55:55;20.60;57.00
19192;DHT22;9728;48.194;16.346;2022-10-31T16:01:03;20.60;57.00
19192;DHT22;9728;48.194;16.346;2022-10-31T16:06:20;20.50;57.00
19192;DHT22;9728;48.194;16.346;2022-10-31T16:11:27;20.50;57.10
19192;DHT22;9728;48.194;16.346;2022-10-31T16:16:40;20.40;57.10
19192;DHT22;9728;48.194;16.346;2022-10-31T16:21:44;20.40;57.20
19192;DHT22;9728;48.194;16.346;2022-10-31T16:26:48;20.40;57.20
19192;DHT22;9728;48.194;16.346;2022-10-31T16:31:53;20.30;57.20
19192;DHT22;9728;48.194;16.346;2022-10-31T16:36:56;20.30;58.00
19192;DHT22;9728;48.194;16.346;2022-10-31T16:42:00;20.30;57.40
19192;DHT22;9728;48.194;16.346;2022-10-31T16:47:14;20.30;57.70
19192;DHT22;9728;48.194;16.346;2022-10-31T16:52:17;20.30;57.70
19192;DHT22;9728;48.194;16.346;2022-10-31T16:57:29;20.30;57.50
19192;DHT22;9728;48.194;16.346;2022-10-31T17:02:35;20.20;57.50
19192;DHT22;9728;48.194;16.346;2022-10-31T17:07:39;20.20;57.40
19192;DHT22;9728;48.194;16.346;2022-10-31T17:12:46;20.20;57.50
19192;DHT22;9728;48.194;16.346;2022-10-31T17:17:52;20.10;57.40
19192;DHT22;9728;48.194;16.346;2022-10-31T17:22:57;20.10;57.50
19192;DHT22;9728;48.194;16.346;2022-10-31T17:28:02;20.00;57.40
19192;DHT22;9728;48.194;16.346;2022-10-31T17:33:09;20.00;57.70
19192;DHT22;9728;48.194;16.346;2022-10-31T17:38:14;20.00;57.70
19192;DHT22;9728;48.194;16.346;2022-10-31T17:43:18;20.00;57.60
19192;DHT22;9728;48.194;16.346;2022-10-31T17:48:23;20.00;57.60
19192;DHT22;9728;48.194;16.346;2022-10-31T17:53:28;20.00;57.60
19192;DHT22;9728;48.194;16.346;2022-10-31T17:58:33;19.90;57.60
19192;DHT22;9728;48.194;16.346;2022-10-31T18:03:39;19.90;57.40
19192;DHT22;9728;48.194;16.346;2022-10-31T18:08:43;19.90;57.40
19192;DHT22;9728;48.194;16.346;2022-10-31T18:13:54;19.90;57.40
19192;DHT22;9728;48.194;16.346;2022-10-31T18:19:00;19.80;57.50
19192;DHT22;9728;48.194;16.346;2022-10-31T18:24:08;19.80;57.60
19192;DHT22;9728;48.194;16.346;2022-10-31T18:29:12;19.80;57.70
19192;DHT22;9728;48.194;16.346;2022-10-31T18:34:17;19.70;58.00
19192;DHT22;9728;48.194;16.346;2022-10-31T18:39:20;19.80;57.90
19192;DHT22;9728;48.194;16.346;2022-10-31T18:44:24;19.80;57.80
19192;DHT22;9728;48.194;16.346;2022-10-31T18:49:30;19.80;57.80
19192;DHT22;9728;48.194;16.346;2022-10-31T18:54:34;19.70;57.80
19192;DHT22;9728;48.194;16.346;2022-10-31T18:59:38;19.70;57.70
19192;DHT22;9728;48.194;16.346;2022-10-31T19:04:44;19.70;57.70
19192;DHT22;9728;48.194;16.346;2022-10-31T19:09:48;19.70;57.80
19192;DHT22;9728;48.194;16.346;2022-10-31T19:14:55;19.60;57.70
19192;DHT22;9728;48.194;16.346;2022-10-31T19:20:00;19.70;57.80
19192;DHT22;9728;48.194;16.346;2022-10-31T19:25:06;19.60;57.80
19192;DHT22;9728;48.194;16.346;2022-10-31T19:30:14;19.60;57.80
19192;DHT22;9728;48.194;16.346;2022-10-31T19:35:20;19.60;57.80
19192;DHT22;9728;48.194;16.346;2022-10-31T19:40:24;19.60;57.90
19192;DHT22;9728;48.194;16.346;2022-10-31T19:45:31;19.60;57.90
19192;DHT22;9728;48.194;16.346;2022-10-31T19:50:36;19.60;57.90
19192;DHT22;9728;48.194;16.346;2022-10-31T19:55:40;19.60;57.90
19192;DHT22;9728;48.194;16.346;2022-10-31T20:00:44;19.60;57.90
19192;DHT22;9728;48.194;16.346;2022-10-31T20:05:49;19.60;57.90
19192;DHT22;9728;48.194;16.346;2022-10-31T20:10:54;19.60;57.90
19192;DHT22;9728;48.194;16.346;2022-10-31T20:15:59;19.60;57.90
19192;DHT22;9728;48.194;16.346;2022-10-31T20:21:07;19.50;57.90
19192;DHT22;9728;48.194;16.346;2022-10-31T20:26:14;19.50;57.80
19192;DHT22;9728;48.194;16.346;2022-10-31T20:31:20;19.50;57.90
19192;DHT22;9728;48.194;16.346;2022-10-31T20:36:27;19.50;57.80
19192;DHT22;9728;48.194;16.346;2022-10-31T20:41:35;19.50;57.80
19192;DHT22;9728;48.194;16.346;2022-10-31T20:46:39;19.50;61.20
19192;DHT22;9728;48.194;16.346;2022-10-31T20:51:45;19.70;64.00
19192;DHT22;9728;48.194;16.346;2022-10-31T20:56:50;20.20;65.10
19192;DHT22;9728;48.194;16.346;2022-10-31T21:01:54;20.90;64.80
19192;DHT22;9728;48.194;16.346;2022-10-31T21:07:00;21.50;63.90
19192;DHT22;9728;48.194;16.346;2022-10-31T21:12:05;22.20;62.20
19192;DHT22;9728;48.194;16.346;2022-10-31T21:17:09;22.80;61.00
19192;DHT22;9728;48.194;16.346;2022-10-31T21:22:15;23.40;59.60
19192;DHT22;9728;48.194;16.346;2022-10-31T21:27:19;23.90;58.20
19192;DHT22;9728;48.194;16.346;2022-10-31T21:32:22;24.30;56.30
19192;DHT22;9728;48.194;16.346;2022-10-31T21:37:27;24.40;54.50
19192;DHT22;9728;48.194;16.346;2022-10-31T21:42:30;24.30;53.00
19192;DHT22;9728;48.194;16.346;2022-10-31T21:47:33;24.10;52.50
19192;DHT22;9728;48.194;16.346;2022-10-31T21:52:38;23.80;52.20
19192;DHT22;9728;48.194;16.346;2022-10-31T21:57:42;23.50;52.00
19192;DHT22;9728;48.194;16.346;2022-10-31T22:02:45;23.10;52.10
19192;DHT22;9728;48.194;16.346;2022-10-31T22:07:50;22.80;52.30
19192;DHT22;9728;48.194;16.346;2022-10-31T22:12:53;22.50;52.40
19192;DHT22;9728;48.194;16.346;2022-10-31T22:17:56;22.10;52.70
19192;DHT22;9728;48.194;16.346;2022-10-31T22:23:02;21.80;53.00
19192;DHT22;9728;48.194;16.346;2022-10-31T22:28:05;21.60;53.30
19192;DHT22;9728;48.194;16.346;2022-10-31T22:33:08;21.30;53.50
19192;DHT22;9728;48.194;16.346;2022-10-31T22:38:13;21.10;53.80
19192;DHT22;9728;48.194;16.346;2022-10-31T22:43:16;20.90;54.00
19192;DHT22;9728;48.194;16.346;2022-10-31T22:48:20;20.70;54.30
19192;DHT22;9728;48.194;16.346;2022-10-31T22:53:24;20.50;54.50
19192;DHT22;9728;48.194;16.346;2022-10-31T22:58:28;20.40;54.70
19192;DHT22;9728;48.194;16.346;2022-10-31T23:03:32;20.30;54.90
19192;DHT22;9728;48.194;16.346;2022-10-31T23:08:37;20.20;55.20
19192;DHT22;9728;48.194;16.346;2022-10-31T23:13:41;20.00;55.30
19192;DHT22;9728;48.194;16.346;2022-10-31T23:19:03;20.00;55.50
19192;DHT22;9728;48.194;16.346;2022-10-31T23:24:11;19.90;55.70
19192;DHT22;9728;48.194;16.346;2022-10-31T23:29:14;19.80;55.80
19192;DHT22;9728;48.194;16.346;2022-10-31T23:34:17;19.80;55.90
19192;DHT22;9728;48.194;16.346;2022-10-31T23:39:22;19.70;56.00
19192;DHT22;9728;48.194;16.346;2022-10-31T23:44:26;19.60;56.10
19192;DHT22;9728;48.194;16.346;2022-10-31T23:49:30;19.60;56.20
19192;DHT22;9728;48.194;16.346;2022-10-31T23:54:34;19.50;56.20
19192;DHT22;9728;48.194;16.346;2022-10-31T23:59:38;19.50;56.40
